createdAt,value
2022-08-23T00:01:32.417Z,21.40
2022-08-23T00:03:58.364Z,21.20
2022-08-23T00:06:24.350Z,21.20
2022-08-23T00:08:50.316Z,21.20
2022-08-23T00:11:16.268Z,21.40
2022-08-23T00:13:47.622Z,21.50
2022-08-23T00:16:14.285Z,21.40
2022-08-23T00:18:40.920Z,21.60
2022-08-23T00:21:13.695Z,21.70
2022-08-23T00:23:39.637Z,21.10
2022-08-23T00:26:06.298Z,20.90
2022-08-23T00:28:32.322Z,21.10
2022-08-23T00:30:58.559Z,21.40
2022-08-23T00:33:25.770Z,20.80
2022-08-23T00:35:52.177Z,21.10
2022-08-23T00:38:32.682Z,21.20
2022-08-23T00:41:01.170Z,21.30
2022-08-23T00:46:07.786Z,21.20
2022-08-23T02:52:56.889Z,19.80
2022-08-23T02:55:22.954Z,19.70
2022-08-23T02:57:48.915Z,19.80
2022-08-23T03:00:14.905Z,19.70
2022-08-23T03:02:41.526Z,19.60
2022-08-23T03:05:07.548Z,19.40
2022-08-23T03:07:33.545Z,19.50
2022-08-23T03:10:01.383Z,19.30
2022-08-23T03:12:27.666Z,19.30
2022-08-23T03:14:53.691Z,19.20
2022-08-23T03:17:19.643Z,19.20
2022-08-23T03:19:45.605Z,19.20
2022-08-23T03:22:11.653Z,19.10
2022-08-23T03:24:37.620Z,19.30
2022-08-23T03:27:03.584Z,19.30
2022-08-23T03:29:30.478Z,19.30
2022-08-23T03:31:56.442Z,19.20
2022-08-23T03:34:23.627Z,19.40
2022-08-23T03:36:49.928Z,19.50
2022-08-23T03:39:16.585Z,19.40
2022-08-23T03:41:42.566Z,19.40
2022-08-23T03:44:08.575Z,19.50
2022-08-23T03:46:35.248Z,19.30
2022-08-23T03:49:01.243Z,19.20
2022-08-23T03:51:27.268Z,19.10
2022-08-23T03:53:53.236Z,19.10
2022-08-23T03:56:19.870Z,19.10
2022-08-23T03:58:45.874Z,19.10
2022-08-23T04:01:11.875Z,19.20
2022-08-23T04:03:37.844Z,19.20
2022-08-23T04:06:03.859Z,19.10
2022-08-23T04:08:33.865Z,19.10
2022-08-23T04:11:00.063Z,19.10
2022-08-23T04:13:26.073Z,18.90
2022-08-23T04:15:53.273Z,19.00
2022-08-23T04:18:20.010Z,19.00
2022-08-23T04:20:46.011Z,18.80
2022-08-23T04:23:11.959Z,18.70
2022-08-23T04:25:38.537Z,18.80
2022-08-23T04:28:04.563Z,18.70
2022-08-23T04:30:30.543Z,18.60
2022-08-23T04:32:57.263Z,18.70
2022-08-23T04:35:24.095Z,18.70
2022-08-23T04:37:50.087Z,18.30
2022-08-23T04:40:16.913Z,18.30
2022-08-23T04:42:42.953Z,18.40
2022-08-23T04:45:09.622Z,18.50
2022-08-23T04:47:35.613Z,18.40
2022-08-23T04:50:01.627Z,18.30
2022-08-23T04:52:28.307Z,18.30
2022-08-23T04:54:54.303Z,18.20
2022-08-23T04:57:20.333Z,18.30
2022-08-23T04:59:47.040Z,18.40
2022-08-23T05:02:13.044Z,18.30
2022-08-23T05:04:39.028Z,18.20
2022-08-23T05:07:06.522Z,17.90
2022-08-23T05:09:32.466Z,17.80
2022-08-23T05:11:59.403Z,17.90
2022-08-23T05:14:25.366Z,17.80
2022-08-23T05:16:51.321Z,17.90
2022-08-23T05:19:18.311Z,17.70
2022-08-23T05:21:44.273Z,17.60
2022-08-23T05:24:13.820Z,17.70
2022-08-23T05:26:40.018Z,17.90
2022-08-23T05:29:06.729Z,17.80
2022-08-23T05:31:32.963Z,17.90
2022-08-23T05:33:59.252Z,18.20
2022-08-23T05:36:26.580Z,18.10
2022-08-23T05:38:52.863Z,17.70
2022-08-23T05:41:19.153Z,18.00
2022-08-23T05:43:49.832Z,18.00
2022-08-23T05:46:15.964Z,17.70
2022-08-23T07:48:14.522Z,19.80
2022-08-23T07:50:51.079Z,19.90
2022-08-23T07:53:32.038Z,20.00
2022-08-23T07:56:04.666Z,20.10
2022-08-23T07:58:30.691Z,20.30
2022-08-23T08:00:56.642Z,20.50
2022-08-23T08:03:22.608Z,20.50
2022-08-23T08:05:48.639Z,20.70
2022-08-23T08:08:14.618Z,20.50
2022-08-23T08:10:41.346Z,20.70
2022-08-23T08:13:07.405Z,20.10
2022-08-23T08:15:33.367Z,20.20
2022-08-23T08:17:59.412Z,20.40
2022-08-23T08:20:25.568Z,20.60
2022-08-23T08:22:58.474Z,21.00
2022-08-23T08:25:26.271Z,21.00
2022-08-23T08:27:53.005Z,20.90
2022-08-23T08:30:18.983Z,20.70
2022-08-23T08:32:47.469Z,20.70
2022-08-23T08:35:13.568Z,21.00
2022-08-23T08:37:40.354Z,21.20
2022-08-23T08:40:08.647Z,21.50
2022-08-23T08:42:34.675Z,21.70
2022-08-23T08:45:01.408Z,21.80
2022-08-23T08:47:28.262Z,21.40
2022-08-23T08:49:54.896Z,21.80
2022-08-23T08:52:20.890Z,21.90
2022-08-23T08:54:48.348Z,22.00
2022-08-23T08:57:14.409Z,21.60
2022-08-23T08:59:40.406Z,21.50
2022-08-23T09:02:06.426Z,21.90
2022-08-23T09:04:48.096Z,22.10
2022-08-23T09:07:14.934Z,21.90
2022-08-23T09:09:40.924Z,21.80
2022-08-23T09:12:06.870Z,22.00
2022-08-23T09:14:33.880Z,22.10
2022-08-23T09:16:59.859Z,22.20
2022-08-23T09:19:26.956Z,21.90
2022-08-23T09:21:53.887Z,21.90
2022-08-23T09:24:19.898Z,22.00
2022-08-23T09:26:45.870Z,22.00
2022-08-23T09:29:12.782Z,21.70
2022-08-23T09:31:38.863Z,22.00
2022-08-23T09:34:05.757Z,22.60
2022-08-23T09:36:32.653Z,22.80
2022-08-23T09:38:58.635Z,23.10
2022-08-23T09:41:24.592Z,23.10
2022-08-23T09:43:52.310Z,22.90
2022-08-23T09:46:18.889Z,22.50
2022-08-23T09:48:44.899Z,22.30
2022-08-23T09:51:11.223Z,22.50
2022-08-23T09:53:41.593Z,22.60
2022-08-23T09:56:07.633Z,22.80
2022-08-23T09:58:33.553Z,22.60
2022-08-23T10:01:00.251Z,22.70
2022-08-23T10:03:26.222Z,22.60
2022-08-23T10:05:52.238Z,22.70
2022-08-23T10:08:18.941Z,23.00
2022-08-23T10:10:45.793Z,23.20
2022-08-23T10:13:17.029Z,22.60
2022-08-23T10:15:43.039Z,22.30
2022-08-23T10:18:09.040Z,22.80
2022-08-23T10:20:35.022Z,23.00
2022-08-23T10:23:01.721Z,23.30
2022-08-23T10:25:29.229Z,23.00
2022-08-23T10:27:55.579Z,22.70
2022-08-23T10:30:21.876Z,22.70
2022-08-23T10:32:48.211Z,23.00
2022-08-23T10:35:14.629Z,22.70
2022-08-23T10:37:40.862Z,22.20
2022-08-23T10:40:08.222Z,22.40
2022-08-23T12:43:28.831Z,23.00
2022-08-23T12:45:54.888Z,22.80
2022-08-23T12:48:20.902Z,23.00
2022-08-23T12:50:46.889Z,23.10
2022-08-23T12:53:13.164Z,23.40
2022-08-23T12:55:39.369Z,23.00
2022-08-23T12:58:05.400Z,23.40
2022-08-23T13:00:31.349Z,23.60
2022-08-23T13:02:57.436Z,23.50
2022-08-23T13:05:24.664Z,23.40
2022-08-23T13:07:50.865Z,23.20
2022-08-23T13:10:16.865Z,23.20
2022-08-23T13:12:43.678Z,23.20
2022-08-23T13:15:10.247Z,23.20
2022-08-23T13:17:36.202Z,23.10
2022-08-23T13:20:02.216Z,22.60
2022-08-23T13:22:28.921Z,23.00
2022-08-23T13:25:17.521Z,22.50
2022-08-23T13:27:40.920Z,23.00
2022-08-23T13:30:06.913Z,23.50
2022-08-23T13:32:32.876Z,23.40
2022-08-23T13:34:58.853Z,23.80
2022-08-23T13:37:25.004Z,23.50
2022-08-23T13:39:50.982Z,23.80
2022-08-23T13:42:19.032Z,23.90
2022-08-23T13:44:45.089Z,24.10
2022-08-23T13:47:11.100Z,24.20
2022-08-23T13:49:37.200Z,23.90
2022-08-23T13:52:41.286Z,23.80
2022-08-23T13:54:52.811Z,23.70
2022-08-23T13:57:19.125Z,24.10
2022-08-23T13:59:45.067Z,24.40
2022-08-23T14:02:11.962Z,24.30
2022-08-23T14:04:38.000Z,24.40
2022-08-23T14:07:04.082Z,24.20
2022-08-23T14:09:30.074Z,24.10
2022-08-23T14:11:56.047Z,24.20
2022-08-23T14:14:21.998Z,24.30
2022-08-23T14:16:48.980Z,24.00
2022-08-23T14:19:16.492Z,23.70
2022-08-23T14:21:44.163Z,23.80
2022-08-23T14:24:11.068Z,24.00
2022-08-23T14:26:37.084Z,23.80
2022-08-23T14:29:03.045Z,23.90
2022-08-23T14:31:29.118Z,24.00
2022-08-23T14:33:57.757Z,24.00
2022-08-23T14:36:27.840Z,24.00
2022-08-23T14:38:56.114Z,23.80
2022-08-23T14:41:22.852Z,24.10
2022-08-23T14:43:48.837Z,24.20
2022-08-23T14:46:14.864Z,24.20
2022-08-23T14:48:41.395Z,23.70
2022-08-23T14:51:07.677Z,23.50
2022-08-23T14:53:33.786Z,23.50
2022-08-23T14:56:20.286Z,23.80
2022-08-23T14:58:46.458Z,23.60
2022-08-23T15:01:12.532Z,23.70
2022-08-23T15:03:38.593Z,23.90
2022-08-23T15:06:05.490Z,23.50
2022-08-23T15:08:31.495Z,23.40
2022-08-23T15:13:55.209Z,23.10
2022-08-23T15:16:22.274Z,23.20
2022-08-23T15:18:49.983Z,23.40
2022-08-23T15:21:16.292Z,23.40
2022-08-23T15:23:42.351Z,23.60
2022-08-23T15:26:10.161Z,23.70
2022-08-23T15:28:37.608Z,23.80
2022-08-23T15:31:04.056Z,23.60
2022-08-23T15:33:30.798Z,23.50
2022-08-23T15:35:57.538Z,23.00
2022-08-23T17:37:52.999Z,22.30
2022-08-23T17:40:21.391Z,22.60
2022-08-23T17:42:47.597Z,22.80
2022-08-23T17:45:14.472Z,22.90
2022-08-23T17:47:40.440Z,22.90
2022-08-23T17:50:06.905Z,22.60
2022-08-23T17:52:32.891Z,22.30
2022-08-23T17:54:58.889Z,22.60
2022-08-23T17:57:25.002Z,22.50
2022-08-23T17:59:51.337Z,22.70
2022-08-23T18:02:17.285Z,22.70
2022-08-23T18:04:43.273Z,22.40
2022-08-23T18:07:10.215Z,22.70
2022-08-23T18:09:40.100Z,22.80
2022-08-23T18:12:14.286Z,23.00
2022-08-23T18:14:40.238Z,23.00
2022-08-23T18:17:06.962Z,22.40
2022-08-23T18:19:32.994Z,22.50
2022-08-23T18:22:02.316Z,22.00
2022-08-23T18:24:28.651Z,22.20
2022-08-23T18:26:54.854Z,22.30
2022-08-23T18:29:20.838Z,22.50
2022-08-23T18:31:46.817Z,22.10
2022-08-23T18:34:13.735Z,22.30
2022-08-23T18:36:39.686Z,22.00
2022-08-23T18:39:05.636Z,22.20
2022-08-23T18:41:32.238Z,21.90
2022-08-23T18:43:58.239Z,21.70
2022-08-23T18:46:24.199Z,22.00
2022-08-23T18:48:53.789Z,22.10
2022-08-23T18:51:20.670Z,22.30
2022-08-23T18:53:46.648Z,22.40
2022-08-23T18:56:12.660Z,22.30
2022-08-23T18:58:39.401Z,22.30
2022-08-23T19:01:06.691Z,22.20
2022-08-23T19:03:32.838Z,22.30
2022-08-23T19:05:58.788Z,22.50
2022-08-23T19:08:25.491Z,22.20
2022-08-23T19:10:51.565Z,22.10
2022-08-23T19:13:17.527Z,21.90
2022-08-23T19:15:43.484Z,22.20
2022-08-23T19:18:09.505Z,22.30
2022-08-23T19:20:35.481Z,22.30
2022-08-23T19:23:02.140Z,22.00
2022-08-23T19:25:29.094Z,21.50
2022-08-23T19:27:58.438Z,21.80
2022-08-23T19:30:24.443Z,22.10
2022-08-23T19:32:54.458Z,21.60
2022-08-23T19:35:20.412Z,21.60
2022-08-23T19:37:47.171Z,21.50
2022-08-23T19:40:13.277Z,21.30
2022-08-23T19:42:39.251Z,21.50
2022-08-23T19:45:05.211Z,21.50
2022-08-23T19:47:32.161Z,21.50
2022-08-23T19:49:58.151Z,21.50
2022-08-23T19:52:24.110Z,21.70
2022-08-23T19:54:50.970Z,21.70
2022-08-23T19:57:17.713Z,21.60
2022-08-23T19:59:44.005Z,21.80
2022-08-23T20:02:10.073Z,21.60
2022-08-23T20:04:36.992Z,21.60
2022-08-23T20:07:03.329Z,21.10
2022-08-23T20:09:29.332Z,21.30
2022-08-23T20:11:55.553Z,21.20
2022-08-23T20:14:21.910Z,21.50
2022-08-23T20:16:48.257Z,21.60
2022-08-23T20:21:55.074Z,21.50
2022-08-23T20:24:37.352Z,21.50
2022-08-23T20:29:48.397Z,21.50
2022-08-23T22:31:56.158Z,20.10
2022-08-23T22:34:22.165Z,20.10
2022-08-23T22:36:52.005Z,20.10
2022-08-23T22:39:19.191Z,20.10
2022-08-23T22:41:45.245Z,20.10
2022-08-23T22:44:11.251Z,20.20
2022-08-23T22:46:37.386Z,20.00
2022-08-23T22:49:03.450Z,20.10
2022-08-23T22:51:29.438Z,20.00
2022-08-23T22:53:55.516Z,19.80
2022-08-23T22:56:22.256Z,19.90
2022-08-23T22:58:51.678Z,19.60
2022-08-23T23:01:18.915Z,19.80
2022-08-23T23:03:45.811Z,19.80
2022-08-23T23:06:11.942Z,19.80
2022-08-23T23:08:38.024Z,19.50
2022-08-23T23:11:04.810Z,19.50
2022-08-23T23:13:30.804Z,19.80
2022-08-23T23:15:56.872Z,19.90
2022-08-23T23:18:23.672Z,20.10
2022-08-23T23:20:49.657Z,20.00
2022-08-23T23:23:16.218Z,20.00
2022-08-23T23:25:42.857Z,19.80
2022-08-23T23:28:08.860Z,19.90
2022-08-23T23:30:35.822Z,19.90
2022-08-23T23:33:01.950Z,19.20
2022-08-23T23:35:27.952Z,19.10
2022-08-23T23:37:54.000Z,19.10
2022-08-23T23:40:20.027Z,19.30
2022-08-23T23:42:46.295Z,19.30
2022-08-23T23:45:12.373Z,19.00
2022-08-23T23:47:38.472Z,19.10
2022-08-23T23:50:04.458Z,19.30
2022-08-23T23:52:32.201Z,19.20
2022-08-23T23:54:58.212Z,19.40
2022-08-23T23:57:24.203Z,19.70
2022-08-23T23:59:51.163Z,19.80
